Time;durP1;ratioP1;P1;durP2;ratioP2;P2;SDS_P1;SDS_P2;PMS_P1;PMS_P2;Temp;Humidity;BMP_temperature;BMP_pressure;BME280_temperature;BME280_humidity;BME280_pressure;Samples;Min_cycle;Max_cycle;Signal;HPM_P1;HPM_P2
2023/03/05 00:01:07;;;;;;;11.32;3.13;;;;;;;7.02;71.12;102187.19;5074459;28;20518;-60
2023/03/05 00:03:32;;;;;;;10.93;3.00;;;;;;;7.06;71.62;102185.59;5057326;28;20032;-60
2023/03/05 00:05:58;;;;;;;13.63;4.28;;;;;;;7.04;71.39;102196.03;5074674;28;20130;-60
2023/03/05 00:08:23;;;;;;;13.32;4.57;;;;;;;7.05;71.29;102195.22;5074967;28;20381;-60
2023/03/05 00:10:56;;;;;;;10.60;3.42;;;;;;;7.14;70.93;102194.75;5074652;28;20031;-60
2023/03/05 00:13:22;;;;;;;12.52;3.53;;;;;;;7.10;70.00;102192.78;5074575;28;20374;-60
2023/03/05 00:15:47;;;;;;;13.65;3.30;;;;;;;7.03;69.81;102191.63;5074547;28;20029;-60
2023/03/05 00:18:13;;;;;;;11.60;3.40;;;;;;;7.00;70.01;102189.75;5074564;28;20110;-60
2023/03/05 00:20:38;;;;;;;9.32;2.92;;;;;;;6.94;69.88;102184.22;5074425;28;20118;-60
2023/03/05 00:23:03;;;;;;;11.35;3.40;;;;;;;6.85;70.35;102185.47;5074168;28;20474;-60
2023/03/05 00:25:29;;;;;;;11.55;3.28;;;;;;;6.73;70.43;102183.19;5074638;28;20044;-61
2023/03/05 00:27:54;;;;;;;10.55;3.08;;;;;;;6.70;71.08;102185.66;5056341;28;20029;-60
2023/03/05 00:30:20;;;;;;;12.77;3.38;;;;;;;6.67;71.21;102180.25;5056382;28;20028;-61
2023/03/05 00:32:45;;;;;;;11.93;3.20;;;;;;;6.67;71.61;102172.38;5074221;28;20173;-60
2023/03/05 00:35:11;;;;;;;7.80;2.60;;;;;;;6.70;70.59;102178.69;5074128;28;20051;-60
2023/03/05 00:37:36;;;;;;;8.55;2.80;;;;;;;6.65;71.04;102174.94;5074167;28;20536;-60
2023/03/05 00:40:03;;;;;;;12.25;3.22;;;;;;;6.72;71.21;102171.78;5074291;28;20024;-61
2023/03/05 00:42:29;;;;;;;10.57;2.97;;;;;;;6.72;71.09;102169.16;5074021;28;20031;-60
2023/03/05 00:44:54;;;;;;;11.20;2.90;;;;;;;6.75;69.98;102165.75;5056077;28;20119;-60
2023/03/05 00:47:19;;;;;;;10.32;2.70;;;;;;;6.77;70.75;102167.66;5073956;28;20103;-60
2023/03/05 00:49:45;;;;;;;8.93;2.85;;;;;;;6.76;70.67;102164.94;5073767;28;20056;-61
2023/03/05 00:52:10;;;;;;;12.10;3.08;;;;;;;6.72;70.88;102156.03;5073774;28;20028;-60
2023/03/05 00:54:36;;;;;;;10.77;3.13;;;;;;;6.73;71.32;102149.94;5073540;28;20374;-60
2023/03/05 00:57:01;;;;;;;12.82;2.95;;;;;;;6.76;71.06;102159.69;5073196;28;20032;-60
2023/03/05 00:59:26;;;;;;;9.57;3.30;;;;;;;6.75;70.88;102153.53;5073222;28;20162;-60
2023/03/05 01:01:52;;;;;;;7.55;2.70;;;;;;;6.69;71.04;102142.75;5073455;28;20051;-60
2023/03/05 01:04:17;;;;;;;8.25;2.58;;;;;;;6.72;71.17;102152.47;5073489;28;20025;-60
2023/03/05 01:06:45;;;;;;;9.30;2.95;;;;;;;6.70;71.01;102151.53;5073370;28;20059;-61
2023/03/05 01:09:10;;;;;;;12.40;2.90;;;;;;;6.68;71.24;102147.91;5073701;28;20060;-61
2023/03/05 01:11:36;;;;;;;11.85;3.42;;;;;;;6.65;71.09;102146.06;5073611;28;20117;-60
2023/03/05 01:14:01;;;;;;;12.88;2.80;;;;;;;6.69;71.33;102144.47;5073262;28;20031;-60
2023/03/05 01:16:27;;;;;;;11.40;3.00;;;;;;;6.68;71.19;102140.97;5073164;28;20021;-60
2023/03/05 01:18:53;;;;;;;8.32;2.47;;;;;;;6.68;70.92;102135.69;5073360;28;20063;-60
2023/03/05 01:21:20;;;;;;;11.70;3.50;;;;;;;6.73;71.72;102130.66;5073260;28;20020;-61
2023/03/05 01:23:45;;;;;;;11.82;2.58;;;;;;;6.72;71.41;102127.13;5073248;28;20082;-60
2023/03/05 01:26:11;;;;;;;12.10;2.75;;;;;;;6.73;71.37;102128.94;5073336;28;20024;-60
2023/03/05 01:28:37;;;;;;;10.30;2.97;;;;;;;6.67;71.53;102120.75;5073246;28;20103;-60
2023/03/05 01:31:06;;;;;;;9.75;2.88;;;;;;;6.65;71.48;102114.53;5073122;28;20063;-60
2023/03/05 01:33:31;;;;;;;12.68;2.75;;;;;;;6.69;71.71;102112.97;5073081;28;20028;-60
2023/03/05 01:35:57;;;;;;;11.75;2.95;;;;;;;6.68;71.39;102108.50;5073234;28;20114;-60
2023/03/05 01:38:22;;;;;;;10.00;2.75;;;;;;;6.73;71.37;102110.53;5073138;28;20412;-60
2023/03/05 01:40:48;;;;;;;13.45;2.90;;;;;;;6.77;72.16;102108.97;5072957;28;20076;-60
2023/03/05 01:43:26;;;;;;;8.80;2.85;;;;;;;6.77;72.13;102101.09;5073054;28;20078;-61
2023/03/05 01:46:25;;;;;;;10.75;3.00;;;;;;;6.80;71.93;102105.56;5073082;28;20040;-61
2023/03/05 01:48:55;;;;;;;11.15;3.05;;;;;;;6.75;71.58;102105.34;5072915;28;20029;-60
2023/03/05 01:51:25;;;;;;;11.05;3.10;;;;;;;6.72;72.46;102085.13;5073368;28;20032;-61
2023/03/05 01:53:52;;;;;;;11.43;2.80;;;;;;;6.71;72.19;102083.28;5072952;28;20104;-60
2023/03/05 01:56:17;;;;;;;12.00;3.30;;;;;;;6.67;71.78;102083.06;5054836;28;20067;-60
2023/03/05 01:58:44;;;;;;;11.35;3.08;;;;;;;6.64;72.75;102086.47;5073016;28;20052;-60
2023/03/05 02:01:10;;;;;;;8.55;2.90;;;;;;;6.61;72.94;102081.06;5072546;28;20493;-60
2023/03/05 02:03:36;;;;;;;12.95;3.53;;;;;;;6.61;73.09;102075.81;5072770;28;20035;-61
2023/03/05 02:06:02;;;;;;;9.25;2.67;;;;;;;6.62;72.32;102066.22;5072638;28;20035;-60
2023/03/05 02:08:27;;;;;;;14.93;3.20;;;;;;;6.66;72.78;102069.06;5072742;28;20103;-60
2023/03/05 02:10:59;;;;;;;10.73;2.90;;;;;;;6.61;72.46;102072.31;5076987;28;20047;-61
2023/03/05 02:13:28;;;;;;;7.75;2.88;;;;;;;6.61;72.44;102052.19;5077063;28;20028;-60
2023/03/05 02:15:56;;;;;;;11.23;3.28;;;;;;;6.60;72.74;102049.50;5076771;28;20074;-60
2023/03/05 02:18:22;;;;;;;8.88;2.70;;;;;;;6.67;72.40;102051.56;5076729;28;20032;-60
2023/03/05 02:20:51;;;;;;;11.10;3.60;;;;;;;6.70;72.23;102052.59;5076573;28;20017;-60
2023/03/05 02:23:18;;;;;;;10.15;2.95;;;;;;;6.66;72.50;102045.41;5076752;28;20029;-61
2023/03/05 02:25:44;;;;;;;9.25;2.90;;;;;;;6.67;72.42;102057.72;5076628;28;20024;-60
2023/03/05 02:28:31;;;;;;;13.30;3.15;;;;;;;6.70;72.25;102044.72;5076635;28;20035;-61
2023/03/05 02:30:57;;;;;;;12.45;2.75;;;;;;;6.69;71.98;102042.03;5076816;28;20074;-61
2023/03/05 02:33:23;;;;;;;10.07;2.75;;;;;;;6.70;72.27;102035.94;5076308;28;20087;-61
2023/03/05 02:35:48;;;;;;;11.13;2.65;;;;;;;6.73;72.95;102036.09;5076256;28;20040;-60
2023/03/05 02:38:16;;;;;;;9.02;2.50;;;;;;;6.70;71.66;102025.44;5058400;28;20067;-60
2023/03/05 02:40:42;;;;;;;9.13;2.72;;;;;;;6.69;72.10;102028.91;5076340;28;20483;-60
2023/03/05 02:43:07;;;;;;;10.48;2.55;;;;;;;6.69;72.60;102026.28;5076326;28;20028;-60
2023/03/05 02:45:33;;;;;;;9.95;3.13;;;;;;;6.68;72.41;102025.38;5058334;28;20028;-60
2023/03/05 02:47:58;;;;;;;9.23;2.65;;;;;;;6.62;72.40;102021.56;5076244;28;20104;-60
2023/03/05 02:50:26;;;;;;;9.30;2.70;;;;;;;6.58;72.87;102014.38;5076392;28;20024;-60
2023/03/05 02:52:52;;;;;;;4.32;2.25;;;;;;;6.57;72.63;102013.47;5076072;28;20027;-60
2023/03/05 02:55:18;;;;;;;7.28;2.63;;;;;;;6.59;72.09;102005.66;5075983;28;20032;-61
2023/03/05 02:57:43;;;;;;;7.35;2.40;;;;;;;6.56;72.75;102009.06;5058109;28;20029;-60
2023/03/05 03:00:10;;;;;;;8.35;2.80;;;;;;;6.59;72.59;102008.28;5075894;28;20041;-61
2023/03/05 03:02:36;;;;;;;8.40;2.60;;;;;;;6.57;72.80;102008.22;5076089;28;20045;-60
2023/03/05 03:05:01;;;;;;;7.20;2.58;;;;;;;6.58;72.59;102001.25;5076092;28;20024;-60
2023/03/05 03:07:27;;;;;;;13.15;3.20;;;;;;;6.47;72.57;101987.66;5076124;28;20024;-60
2023/03/05 03:09:52;;;;;;;9.40;2.67;;;;;;;6.42;72.74;101990.03;5075743;28;20393;-60
2023/03/05 03:12:17;;;;;;;10.27;2.90;;;;;;;6.39;73.30;101996.91;5075613;28;20497;-60
2023/03/05 03:14:43;;;;;;;8.00;2.60;;;;;;;6.30;73.06;101988.59;5058253;28;20115;-60
2023/03/05 03:17:11;;;;;;;9.82;2.72;;;;;;;6.23;73.15;101985.66;5057719;28;20478;-60
2023/03/05 03:19:38;;;;;;;6.40;2.47;;;;;;;6.25;73.42;101977.84;5075522;28;20371;-60
2023/03/05 03:22:04;;;;;;;7.95;2.60;;;;;;;6.20;72.45;101980.28;5074449;28;20020;-60
2023/03/05 03:24:30;;;;;;;10.35;2.60;;;;;;;6.16;73.11;101974.81;5075236;28;20123;-60
2023/03/05 03:26:56;;;;;;;13.27;2.85;;;;;;;6.06;73.34;101973.50;5075590;28;20035;-60
2023/03/05 03:29:21;;;;;;;11.93;2.58;;;;;;;5.96;73.67;101971.28;5075404;28;20024;-60
2023/03/05 03:31:47;;;;;;;6.90;2.60;;;;;;;5.80;74.47;101958.22;5075551;28;20025;-62
2023/03/05 03:34:14;;;;;;;9.25;2.55;;;;;;;5.68;75.30;101950.66;5075500;28;20078;-60
2023/03/05 03:36:41;;;;;;;11.50;2.58;;;;;;;5.62;75.20;101953.88;5075230;28;20064;-60
2023/03/05 03:39:08;;;;;;;7.50;2.40;;;;;;;5.59;75.83;101951.09;5075235;28;20027;-60
2023/03/05 03:41:35;;;;;;;9.48;2.38;;;;;;;5.60;75.66;101944.13;5075456;28;20029;-60
2023/03/05 03:44:02;;;;;;;10.15;2.80;;;;;;;5.58;76.09;101948.41;5075130;28;20367;-60
2023/03/05 03:46:27;;;;;;;7.93;2.70;;;;;;;5.59;76.40;101945.84;5075400;28;20037;-60
2023/03/05 03:48:53;;;;;;;7.57;2.60;;;;;;;5.62;76.81;101943.38;5075055;28;20389;-60
2023/03/05 03:51:18;;;;;;;8.30;2.70;;;;;;;5.68;76.59;101940.16;5075105;28;20035;-60
2023/03/05 03:53:44;;;;;;;10.15;3.00;;;;;;;5.67;76.45;101939.25;5073871;28;20035;-60
2023/03/05 03:56:09;;;;;;;13.70;2.95;;;;;;;5.65;76.47;101940.94;5074908;28;20056;-60
2023/03/05 03:58:34;;;;;;;10.70;3.10;;;;;;;5.67;76.61;101936.63;5075234;28;20037;-60
2023/03/05 04:01:00;;;;;;;8.73;2.90;;;;;;;5.73;76.66;101943.88;5074841;28;20565;-60
2023/03/05 04:03:25;;;;;;;8.65;2.83;;;;;;;5.73;76.65;101936.91;5074824;28;20040;-60
2023/03/05 04:05:51;;;;;;;7.78;3.00;;;;;;;5.74;76.67;101935.22;5074633;28;20104;-60
2023/03/05 04:08:16;;;;;;;10.80;2.67;;;;;;;5.77;76.31;101932.72;5074780;28;20056;-60
2023/03/05 04:10:41;;;;;;;12.23;3.25;;;;;;;5.69;76.74;101934.06;5074588;28;20032;-60
2023/03/05 04:13:07;;;;;;;7.07;2.97;;;;;;;5.67;76.99;101928.78;5074786;28;20122;-60
2023/03/05 04:15:33;;;;;;;6.88;2.83;;;;;;;5.63;76.76;101923.31;5074610;28;20505;-60
2023/03/05 04:17:59;;;;;;;9.30;3.20;;;;;;;5.66;77.02;101926.09;5056812;28;20493;-60
2023/03/05 04:20:25;;;;;;;12.93;3.20;;;;;;;5.67;76.81;101923.53;5074647;28;20032;-60
2023/03/05 04:22:50;;;;;;;10.98;3.45;;;;;;;5.66;76.90;101919.13;5074344;28;20123;-60
2023/03/05 04:25:16;;;;;;;14.40;3.20;;;;;;;5.65;76.82;101916.41;5074334;28;20060;-60
2023/03/05 04:27:41;;;;;;;10.05;3.25;;;;;;;5.61;76.94;101912.75;5056357;28;20062;-60
2023/03/05 04:30:10;;;;;;;12.52;3.08;;;;;;;5.63;77.28;101907.56;5074243;28;20039;-60
2023/03/05 04:32:36;;;;;;;12.30;3.20;;;;;;;5.66;76.78;101911.25;5074173;28;20029;-60
2023/03/05 04:35:02;;;;;;;8.57;3.10;;;;;;;5.70;76.82;101902.69;5074153;28;20375;-60
2023/03/05 04:37:27;;;;;;;12.85;2.90;;;;;;;5.72;76.35;101902.75;5074199;28;20028;-60
2023/03/05 04:39:53;;;;;;;9.18;2.92;;;;;;;5.72;76.34;101902.75;5074313;28;20027;-60
2023/03/05 04:42:19;;;;;;;10.57;3.40;;;;;;;5.68;76.49;101901.72;5074355;28;20115;-60
2023/03/05 04:44:47;;;;;;;9.68;3.10;;;;;;;5.69;76.86;101903.50;5074233;28;20094;-60
2023/03/05 04:47:13;;;;;;;9.75;3.25;;;;;;;5.71;76.32;101906.22;5074205;28;20111;-60
2023/03/05 04:49:39;;;;;;;11.23;3.55;;;;;;;5.62;76.33;101893.56;5073731;28;20466;-60
2023/03/05 04:52:04;;;;;;;7.65;2.90;;;;;;;5.65;76.73;101898.03;5074022;28;20432;-60
2023/03/05 04:54:29;;;;;;;8.68;2.67;;;;;;;5.65;76.68;101896.34;5073690;28;20378;-59
2023/03/05 04:56:55;;;;;;;14.45;3.72;;;;;;;5.64;76.68;101898.88;5055721;28;20032;-61
2023/03/05 04:59:20;;;;;;;9.88;3.17;;;;;;;5.63;76.70;101894.47;5073760;28;20029;-60
2023/03/05 05:01:45;;;;;;;11.00;3.60;;;;;;;5.64;76.26;101893.63;5073419;28;20110;-60
2023/03/05 05:04:11;;;;;;;13.27;3.83;;;;;;;5.67;76.38;101886.81;5055679;28;20389;-60
2023/03/05 05:06:36;;;;;;;9.32;3.63;;;;;;;5.64;76.42;101885.78;5073495;28;20040;-60
2023/03/05 05:09:02;;;;;;;10.52;3.42;;;;;;;5.66;76.73;101882.41;5073591;28;20061;-60
2023/03/05 05:11:27;;;;;;;12.27;3.63;;;;;;;5.66;76.54;101879.78;5073521;28;20021;-60
2023/03/05 05:13:53;;;;;;;8.80;3.95;;;;;;;5.68;76.25;101882.47;5073483;28;20027;-60
2023/03/05 05:16:18;;;;;;;11.00;4.03;;;;;;;5.68;76.58;101882.47;5073388;28;20385;-60
2023/03/05 05:18:44;;;;;;;9.32;3.92;;;;;;;5.59;76.04;101871.56;5073446;28;20086;-60
2023/03/05 05:21:11;;;;;;;13.07;4.00;;;;;;;5.60;76.90;101874.22;5073231;28;20025;-60
2023/03/05 05:23:37;;;;;;;12.00;4.10;;;;;;;5.55;76.90;101872.22;5073024;28;20051;-60
2023/03/05 05:26:05;;;;;;;10.40;3.67;;;;;;;5.55;77.21;101869.59;5073156;28;20028;-60
2023/03/05 05:28:33;;;;;;;12.02;4.13;;;;;;;5.56;77.02;101860.91;5073257;28;20020;-60
2023/03/05 05:30:58;;;;;;;12.23;4.43;;;;;;;5.59;77.26;101868.94;5073267;28;20504;-60
2023/03/05 05:33:24;;;;;;;8.18;4.05;;;;;;;5.60;77.11;101865.47;5073225;28;20025;-60
2023/03/05 05:35:50;;;;;;;8.32;4.32;;;;;;;5.59;76.63;101861.06;5073051;28;20052;-60
2023/03/05 05:38:16;;;;;;;12.50;4.40;;;;;;;5.59;76.90;101863.69;5073058;28;20448;-60
2023/03/05 05:40:41;;;;;;;8.02;3.88;;;;;;;5.60;77.33;101863.75;5073075;28;20025;-60
2023/03/05 05:43:07;;;;;;;11.68;4.53;;;;;;;5.64;77.39;101870.94;5072810;28;20070;-60
2023/03/05 05:45:33;;;;;;;9.90;4.60;;;;;;;5.58;76.63;101857.53;5072769;28;20025;-60
2023/03/05 05:47:59;;;;;;;13.85;4.95;;;;;;;5.56;77.17;101864.41;5073091;28;20048;-60
2023/03/05 05:50:25;;;;;;;9.98;4.57;;;;;;;5.53;77.27;101856.44;5073129;28;20382;-60
2023/03/05 05:52:51;;;;;;;12.75;4.75;;;;;;;5.49;77.60;101860.63;5072770;28;20052;-60
2023/03/05 05:55:17;;;;;;;9.75;4.25;;;;;;;5.46;77.42;101852.63;5073080;28;20059;-60
2023/03/05 05:57:42;;;;;;;12.25;4.47;;;;;;;5.47;77.74;101845.66;5072896;28;20443;-60
2023/03/05 06:00:10;;;;;;;10.05;4.45;;;;;;;5.44;78.06;101845.53;5072654;28;20048;-60
2023/03/05 06:02:40;;;;;;;12.20;4.55;;;;;;;5.42;77.94;101840.19;5072627;28;20535;-60
2023/03/05 06:05:07;;;;;;;9.68;4.10;;;;;;;5.45;78.38;101845.59;5072685;28;20120;-60
2023/03/05 06:07:33;;;;;;;10.02;4.60;;;;;;;5.42;77.96;101842.81;5072765;28;20032;-60
2023/03/05 06:09:59;;;;;;;9.98;4.82;;;;;;;5.40;78.44;101840.97;5072998;28;20115;-60
2023/03/05 06:12:24;;;;;;;12.10;4.95;;;;;;;5.40;78.08;101843.56;5072789;28;20107;-60
2023/03/05 06:14:50;;;;;;;10.85;4.57;;;;;;;5.43;78.63;101833.22;5072814;28;20067;-60
2023/03/05 06:17:15;;;;;;;14.02;4.60;;;;;;;5.44;78.38;101835.03;5072996;28;20076;-60
2023/03/05 06:19:41;;;;;;;12.70;4.78;;;;;;;5.42;78.54;101832.31;5072540;28;20103;-60
2023/03/05 06:22:06;;;;;;;13.85;4.80;;;;;;;5.44;78.16;101833.31;5072654;28;20032;-60
2023/03/05 06:24:31;;;;;;;16.27;4.85;;;;;;;5.41;79.01;101837.50;5072417;28;20035;-60
2023/03/05 06:26:57;;;;;;;13.63;4.70;;;;;;;5.36;79.54;101841.63;5054795;28;20474;-60
2023/03/05 06:29:22;;;;;;;15.68;4.53;;;;;;;5.34;79.69;101830.16;5072662;28;20100;-60
2023/03/05 06:31:47;;;;;;;13.38;4.95;;;;;;;5.39;79.55;101839.13;5072584;28;20466;-60
2023/03/05 06:34:13;;;;;;;13.00;5.03;;;;;;;5.36;79.76;101826.81;5072463;28;20029;-60
2023/03/05 06:36:39;;;;;;;12.77;4.43;;;;;;;5.33;80.13;101837.13;5072351;28;20033;-60
2023/03/05 06:39:05;;;;;;;12.27;4.68;;;;;;;5.38;80.28;101835.63;5072553;28;20403;-60
2023/03/05 06:41:31;;;;;;;13.77;4.85;;;;;;;5.43;80.38;101838.47;5072445;28;20043;-60
2023/03/05 06:44:01;;;;;;;10.80;4.85;;;;;;;5.38;81.03;101835.63;5072505;28;20053;-60
2023/03/05 06:46:29;;;;;;;10.82;4.68;;;;;;;5.37;80.73;101832.94;5072481;28;20028;-60
2023/03/05 06:48:56;;;;;;;9.88;4.63;;;;;;;5.38;81.24;101832.09;5072610;28;20028;-60
2023/03/05 06:51:31;;;;;;;10.73;4.72;;;;;;;5.42;81.09;101828.81;5072271;28;20056;-60
2023/03/05 06:54:00;;;;;;;11.45;4.88;;;;;;;5.44;81.97;101829.78;5072127;28;20029;-60
2023/03/05 06:56:26;;;;;;;12.45;4.88;;;;;;;5.50;81.98;101835.31;5075656;28;20489;-60
2023/03/05 06:58:52;;;;;;;10.68;5.05;;;;;;;5.49;81.21;101831.78;5076028;28;20029;-60
2023/03/05 07:01:19;;;;;;;11.70;5.15;;;;;;;5.55;81.29;101825.94;5075842;28;20046;-60
2023/03/05 07:03:48;;;;;;;12.50;5.38;;;;;;;5.55;81.87;101832.91;5076015;28;20400;-60
2023/03/05 07:06:14;;;;;;;9.88;4.78;;;;;;;5.55;81.76;101828.56;5075776;28;20033;-60
2023/03/05 07:08:40;;;;;;;12.02;4.68;;;;;;;5.53;81.99;101831.13;5075909;28;20052;-60
2023/03/05 07:11:10;;;;;;;10.88;5.05;;;;;;;5.60;81.70;101827.03;5075831;28;20513;-59
2023/03/05 07:13:35;;;;;;;10.63;5.43;;;;;;;5.63;81.62;101832.44;5075772;28;20032;-60
2023/03/05 07:16:08;;;;;;;13.00;4.38;;;;;;;5.66;81.65;101831.69;5076005;28;20029;-60
2023/03/05 07:18:33;;;;;;;;;;;;;;;5.77;80.26;101833.06;5058992;28;20036;-60
2023/03/05 07:21:06;;;;;;;8.82;3.90;;;;;;;5.74;81.26;101823.34;5075783;28;19912;-60
2023/03/05 07:23:32;;;;;;;10.88;4.72;;;;;;;5.78;81.65;101832.22;5075719;28;20154;-61
2023/03/05 07:26:01;;;;;;;11.95;5.72;;;;;;;5.82;81.64;101820.16;5057537;28;20489;-60
2023/03/05 07:28:26;;;;;;;10.88;6.15;;;;;;;5.82;81.19;101807.94;5075536;28;20029;-60
2023/03/05 07:31:00;;;;;;;10.38;4.90;;;;;;;5.80;81.64;101809.59;5075357;28;20112;-60
2023/03/05 07:33:26;;;;;;;8.23;4.13;;;;;;;5.81;81.77;101814.03;5075315;28;20078;-60
2023/03/05 07:35:51;;;;;;;10.20;4.53;;;;;;;5.80;81.70;101811.34;5057068;28;20527;-60
2023/03/05 07:38:17;;;;;;;9.68;4.60;;;;;;;5.77;82.10;101818.22;5057304;28;20025;-60
2023/03/05 07:40:42;;;;;;;10.95;4.65;;;;;;;5.80;82.91;101819.22;5075196;28;20027;-60
2023/03/05 07:43:08;;;;;;;8.60;4.15;;;;;;;5.84;82.73;101818.53;5075261;28;20029;-60
2023/03/05 07:45:33;;;;;;;9.07;4.75;;;;;;;5.81;82.73;101819.25;5075171;28;20115;-61
2023/03/05 07:47:59;;;;;;;12.57;5.00;;;;;;;5.82;82.44;101812.28;5075192;28;20107;-60
2023/03/05 07:50:24;;;;;;;8.80;4.55;;;;;;;5.85;82.57;101815.06;5074983;28;20029;-60
2023/03/05 07:52:49;;;;;;;8.98;4.85;;;;;;;5.91;82.63;101818.88;5074931;28;20021;-60
2023/03/05 07:55:15;;;;;;;8.13;4.22;;;;;;;6.02;82.84;101812.41;5056868;28;20500;-60
2023/03/05 07:57:40;;;;;;;8.23;4.30;;;;;;;6.04;82.66;101804.63;5057057;28;20032;-60
2023/03/05 08:00:07;;;;;;;7.90;3.75;;;;;;;6.03;82.14;101810.66;5074715;28;20028;-60
2023/03/05 08:02:32;;;;;;;11.20;3.90;;;;;;;6.05;82.83;101806.41;5074845;28;20033;-61
2023/03/05 08:04:58;;;;;;;7.22;3.40;;;;;;;6.13;82.43;101810.25;5075134;28;20035;-60
2023/03/05 08:07:23;;;;;;;7.68;3.67;;;;;;;6.19;81.77;101807.00;5074152;28;20031;-60
2023/03/05 08:09:49;;;;;;;7.53;3.70;;;;;;;6.18;82.09;101799.97;5075077;28;20082;-60
2023/03/05 08:12:14;;;;;;;7.53;3.42;;;;;;;6.21;81.85;101808.88;5074577;28;20056;-60
2023/03/05 08:14:39;;;;;;;7.55;3.83;;;;;;;6.26;82.35;101804.72;5074650;28;20051;-60
2023/03/05 08:17:05;;;;;;;9.20;3.92;;;;;;;6.28;81.64;101805.66;5074491;28;20032;-60
2023/03/05 08:19:32;;;;;;;8.50;3.45;;;;;;;6.29;80.98;101803.94;5074522;28;20029;-60
2023/03/05 08:21:57;;;;;;;9.52;3.60;;;;;;;6.25;80.72;101805.56;5074473;28;20478;-60
2023/03/05 08:24:28;;;;;;;6.82;3.38;;;;;;;6.28;81.70;101794.28;5074268;28;20036;-60
2023/03/05 08:26:57;;;;;;;7.50;3.47;;;;;;;6.36;81.36;101795.50;5074748;28;20487;-60
2023/03/05 08:29:22;;;;;;;7.55;3.60;;;;;;;6.43;80.84;101799.31;5074428;28;20017;-60
2023/03/05 08:31:48;;;;;;;6.70;3.45;;;;;;;6.43;80.67;101794.94;5074257;28;20028;-60
2023/03/05 08:34:14;;;;;;;5.85;3.33;;;;;;;6.44;80.43;101787.97;5074254;28;20073;-60
2023/03/05 08:36:40;;;;;;;7.05;3.60;;;;;;;6.48;80.86;101784.63;5074354;28;20025;-60
2023/03/05 08:39:08;;;;;;;6.20;3.38;;;;;;;6.57;81.15;101787.66;5074027;28;20032;-61
2023/03/05 08:41:34;;;;;;;5.63;3.28;;;;;;;6.63;80.24;101782.66;5074261;28;20032;-60
2023/03/05 08:44:00;;;;;;;5.80;3.40;;;;;;;6.70;79.65;101774.19;5073969;28;20037;-60
2023/03/05 08:46:25;;;;;;;5.35;3.08;;;;;;;6.78;80.01;101775.41;5056354;28;20024;-60
2023/03/05 08:48:50;;;;;;;7.63;3.10;;;;;;;6.78;78.75;101777.16;5073861;28;20082;-60
2023/03/05 08:51:21;;;;;;;6.05;3.08;;;;;;;6.84;78.97;101760.72;5073773;28;20033;-60
2023/03/05 08:53:46;;;;;;;6.97;3.03;;;;;;;6.90;79.75;101758.38;5073537;28;20032;-60
2023/03/05 08:56:13;;;;;;;7.45;2.97;;;;;;;7.04;78.67;101757.19;5074028;28;20027;-60
2023/03/05 08:58:38;;;;;;;6.20;2.70;;;;;;;7.13;78.45;101757.53;5056004;28;20028;-61
2023/03/05 09:01:05;;;;;;;5.38;2.70;;;;;;;7.20;77.08;101750.78;5073476;28;20144;-60
2023/03/05 09:03:30;;;;;;;6.88;2.95;;;;;;;7.29;77.14;101753.78;5072773;28;20420;-60
2023/03/05 09:06:05;;;;;;;7.43;2.90;;;;;;;7.32;78.09;101745.09;5073136;28;20044;-61
2023/03/05 09:08:31;;;;;;;5.47;2.63;;;;;;;7.28;77.78;101750.25;5073311;28;20076;-60
2023/03/05 09:10:56;;;;;;;6.47;2.75;;;;;;;7.30;78.38;101754.66;5073461;28;20021;-60
2023/03/05 09:13:22;;;;;;;4.72;2.35;;;;;;;7.31;77.74;101752.09;5073338;28;20032;-60
2023/03/05 09:15:56;;;;;;;5.53;2.47;;;;;;;7.30;78.27;101745.03;5073245;28;20016;-60
2023/03/05 09:18:21;;;;;;;4.32;2.53;;;;;;;7.30;79.01;101738.91;5072843;28;20429;-60
2023/03/05 09:20:46;;;;;;;3.45;2.30;;;;;;;7.30;77.71;101738.91;5054933;28;20060;-61
2023/03/05 09:23:12;;;;;;;5.45;2.40;;;;;;;7.37;79.71;101735.69;5073115;28;20032;-61
2023/03/05 09:25:39;;;;;;;3.35;2.20;;;;;;;7.51;77.84;101737.97;5073208;28;20028;-61
2023/03/05 09:28:05;;;;;;;2.95;1.90;;;;;;;7.60;75.50;101734.78;5073103;28;20389;-61
2023/03/05 09:30:30;;;;;;;5.35;2.10;;;;;;;7.71;75.33;101735.19;5073022;28;20028;-62
2023/03/05 09:32:56;;;;;;;4.38;2.10;;;;;;;7.76;74.44;101731.00;5073025;28;20040;-60
2023/03/05 09:35:21;;;;;;;5.18;2.13;;;;;;;7.80;75.43;101729.38;5073295;28;20024;-60
2023/03/05 09:37:47;;;;;;;5.97;2.25;;;;;;;7.77;73.92;101728.41;5073083;28;20501;-60
2023/03/05 09:40:16;;;;;;;5.78;2.30;;;;;;;7.77;73.07;101723.13;5073264;28;20025;-60
2023/03/05 09:43:00;;;;;;;4.32;2.15;;;;;;;7.88;73.07;101717.34;5073209;28;20052;-60
2023/03/05 09:45:32;;;;;;;5.85;2.10;;;;;;;7.90;71.80;101719.22;5072991;28;20032;-59
2023/03/05 09:48:04;;;;;;;4.20;2.10;;;;;;;7.86;71.28;101722.56;5055028;28;20115;-59
2023/03/05 09:51:02;;;;;;;4.93;2.00;;;;;;;7.90;72.03;101715.69;5072772;28;20435;-59
2023/03/05 09:53:41;;;;;;;7.00;2.10;;;;;;;7.99;71.49;101708.13;5017869;28;20623;-60
2023/03/05 09:56:14;;;;;;;4.15;1.90;;;;;;;8.08;70.37;101708.44;5073018;28;20035;-60
2023/03/05 09:58:45;;;;;;;;;;;;;;;8.10;70.27;101709.41;5073316;28;20029;-59
2023/03/05 10:01:19;;;;;;;3.75;1.75;;;;;;;8.02;70.06;101702.97;5072814;28;20405;-60
2023/03/05 10:04:14;;;;;;;4.13;1.88;;;;;;;8.05;69.23;101700.47;5072539;28;20528;-60
2023/03/05 10:06:56;;;;;;;4.43;2.00;;;;;;;8.14;70.47;101710.41;5072800;28;20040;-61
2023/03/05 10:09:40;;;;;;;2.80;1.75;;;;;;;8.18;68.19;101710.56;5073126;28;20036;-60
2023/03/05 10:12:41;;;;;;;3.95;1.75;;;;;;;8.16;68.72;101706.97;5072928;28;20016;-60
2023/03/05 10:15:31;;;;;;;3.30;1.83;;;;;;;8.11;69.13;101698.03;5056367;28;20056;-60
2023/03/05 10:18:09;;;;;;;4.82;1.83;;;;;;;8.10;69.34;101703.25;5073030;28;20020;-60
2023/03/05 10:21:12;;;;;;;4.82;2.33;;;;;;;8.14;70.64;101691.97;5054771;28;20393;-60
2023/03/05 10:23:43;;;;;;;5.80;2.63;;;;;;;8.25;69.92;101694.09;5054502;28;20457;-60
2023/03/05 10:26:17;;;;;;;4.67;1.90;;;;;;;8.35;68.23;101683.88;5072828;28;20028;-60
2023/03/05 10:29:08;;;;;;;6.72;2.10;;;;;;;8.35;68.21;101671.63;5072988;28;20116;-60
2023/03/05 10:31:51;;;;;;;3.08;1.70;;;;;;;8.45;67.13;101684.28;5037841;28;20041;-60
2023/03/05 10:34:30;;;;;;;4.75;2.40;;;;;;;8.51;67.17;101675.69;5076600;28;20031;-60
2023/03/05 10:37:09;;;;;;;4.88;2.20;;;;;;;8.51;67.48;101667.78;5076750;28;20044;-60
2023/03/05 10:39:51;;;;;;;2.17;1.60;;;;;;;8.57;66.63;101668.00;5060235;28;20034;-60
2023/03/05 10:42:26;;;;;;;4.47;1.60;;;;;;;8.60;65.95;101661.91;5076730;28;20055;-60
2023/03/05 10:44:53;;;;;;;6.22;1.70;;;;;;;8.58;66.12;101675.03;5076573;28;20034;-60
2023/03/05 10:47:37;;;;;;;3.97;1.73;;;;;;;8.46;66.68;101659.72;5076337;28;20027;-60
2023/03/05 10:50:14;;;;;;;4.05;1.70;;;;;;;8.40;68.13;101672.72;5076179;28;20367;-60
2023/03/05 10:52:45;;;;;;;3.55;1.80;;;;;;;8.09;72.01;101670.72;5076418;28;20025;-61
2023/03/05 10:55:14;;;;;;;3.65;1.90;;;;;;;7.90;73.60;101666.59;5076003;28;20032;-61
2023/03/05 10:57:39;;;;;;;2.22;1.83;;;;;;;7.86;76.80;101669.94;5076127;28;20024;-61
2023/03/05 11:00:05;;;;;;;5.00;2.03;;;;;;;7.87;76.86;101658.56;5076127;28;20345;-61
2023/03/05 11:02:31;;;;;;;5.28;2.10;;;;;;;7.89;76.65;101654.28;5076271;28;20443;-61
2023/03/05 11:04:57;;;;;;;3.97;2.10;;;;;;;8.01;75.94;101659.06;5054463;28;20061;-61
2023/03/05 11:07:22;;;;;;;4.07;1.90;;;;;;;8.16;76.47;101656.94;5055845;28;20027;-61
2023/03/05 11:10:02;;;;;;;3.90;1.80;;;;;;;8.21;75.99;101649.19;5056104;28;20061;-61
2023/03/05 11:12:30;;;;;;;3.10;1.85;;;;;;;8.24;75.08;101634.41;5055731;28;20140;-61
2023/03/05 11:15:05;;;;;;;3.58;1.70;;;;;;;8.38;73.71;101639.25;5054515;28;20052;-61
2023/03/05 11:17:42;;;;;;;2.25;1.52;;;;;;;8.54;73.20;101636.28;5055827;28;20051;-61
2023/03/05 11:20:29;;;;;;;3.05;1.70;;;;;;;8.80;74.33;101626.53;5056058;28;20037;-61
2023/03/05 11:23:02;;;;;;;4.05;2.10;;;;;;;8.89;71.48;101621.53;5055808;28;20079;-60
2023/03/05 11:25:28;;;;;;;3.55;1.60;;;;;;;8.97;69.64;101624.41;5055491;28;20108;-60
2023/03/05 11:27:57;;;;;;;1.98;1.60;;;;;;;9.20;68.74;101619.78;5055226;28;20461;-61
2023/03/05 11:30:33;;;;;;;3.25;1.65;;;;;;;9.51;70.50;101613.66;5054361;28;20031;-61
2023/03/05 11:33:21;;;;;;;3.45;1.77;;;;;;;9.81;70.45;101603.03;5055503;28;20078;-61